createdAt,value
2019-03-22T00:02:03.530Z,125.97
2019-03-22T00:04:33.545Z,122.37
2019-03-22T00:07:03.652Z,121.25
2019-03-22T00:09:34.585Z,123.20
2019-03-22T00:12:04.570Z,125.07
2019-03-22T00:14:36.873Z,122.07
2019-03-22T00:17:06.462Z,122.37
2019-03-22T00:19:36.649Z,117.55
2019-03-22T00:22:06.796Z,124.85
2019-03-22T00:24:36.932Z,117.45
2019-03-22T00:27:16.002Z,128.57
2019-03-22T00:29:39.999Z,119.85
2019-03-22T00:32:10.091Z,122.70
2019-03-22T00:34:40.210Z,120.00
2019-03-22T00:37:10.366Z,121.85
2019-03-22T00:39:40.549Z,123.20
2019-03-22T00:42:10.602Z,132.65
2019-03-22T00:44:40.609Z,121.92
2019-03-22T00:47:10.665Z,123.72
2019-03-22T00:49:41.072Z,129.68
2019-03-22T00:52:11.151Z,126.02
2019-03-22T00:54:41.311Z,131.03
2019-03-22T00:57:11.531Z,134.63
2019-03-22T00:59:41.737Z,133.63
2019-03-22T01:02:11.528Z,138.80
2019-03-22T01:04:41.701Z,141.05
2019-03-22T01:07:12.010Z,138.28
2019-03-22T01:09:43.087Z,140.95
2019-03-22T01:12:13.104Z,136.62
2019-03-22T01:14:43.183Z,144.50
2019-03-22T01:17:13.137Z,144.25
2019-03-22T01:19:43.125Z,154.70
2019-03-22T01:22:13.638Z,153.10
2019-03-22T01:24:46.018Z,148.60
2019-03-22T01:27:16.084Z,149.25
2019-03-22T01:29:46.121Z,149.85
2019-03-22T01:32:16.398Z,144.17
2019-03-22T01:34:46.483Z,145.47
2019-03-22T01:37:16.436Z,151.18
2019-03-22T01:39:47.446Z,143.70
2019-03-22T01:42:19.038Z,150.38
2019-03-22T01:44:49.158Z,155.27
2019-03-22T01:47:19.272Z,151.27
2019-03-22T01:49:49.226Z,150.35
2019-03-22T01:52:19.384Z,145.50
2019-03-22T01:54:53.695Z,146.22
2019-03-22T01:57:23.917Z,156.80
2019-03-22T01:59:53.910Z,147.15
2019-03-22T02:02:23.875Z,145.77
2019-03-22T02:04:54.023Z,145.22
2019-03-22T02:07:24.097Z,139.62
2019-03-22T02:09:54.843Z,142.15
2019-03-22T02:12:24.979Z,147.95
2019-03-22T02:14:54.928Z,144.30
2019-03-22T02:17:24.886Z,143.28
2019-03-22T02:19:55.024Z,137.80
2019-03-22T02:22:25.020Z,134.72
2019-03-22T02:24:55.105Z,138.47
2019-03-22T02:27:25.058Z,141.37
2019-03-22T02:29:55.035Z,147.70
2019-03-22T02:32:25.379Z,145.92
2019-03-22T02:34:55.401Z,137.55
2019-03-22T02:37:25.510Z,143.97
2019-03-22T02:39:55.556Z,141.62
2019-03-22T02:42:26.007Z,147.75
2019-03-22T02:45:02.472Z,142.98
2019-03-22T02:47:33.064Z,145.05
2019-03-22T02:50:17.152Z,141.30
2019-03-22T02:52:37.004Z,146.57
2019-03-22T02:55:08.588Z,140.62
2019-03-22T02:57:38.665Z,138.28
2019-03-22T03:00:16.395Z,132.37
2019-03-22T03:02:46.398Z,137.55
2019-03-22T03:05:16.198Z,142.98
2019-03-22T03:07:46.477Z,137.10
2019-03-22T03:10:17.603Z,141.47
2019-03-22T03:12:47.994Z,134.57
2019-03-22T03:15:18.964Z,123.02
2019-03-22T03:17:49.057Z,129.23
2019-03-22T03:20:19.105Z,125.90
2019-03-22T03:22:49.473Z,130.03
2019-03-22T03:25:19.707Z,128.40
2019-03-22T03:27:49.462Z,123.00
2019-03-22T03:30:20.616Z,122.42
2019-03-22T03:32:51.865Z,113.08
2019-03-22T03:35:21.940Z,113.72
2019-03-22T03:37:51.970Z,109.92
2019-03-22T03:40:21.996Z,110.32
2019-03-22T03:42:52.098Z,101.38
2019-03-22T03:45:38.019Z,116.45
2019-03-22T03:48:11.589Z,114.95
2019-03-22T03:50:41.613Z,109.50
2019-03-22T03:53:11.775Z,112.57
2019-03-22T03:55:41.730Z,116.30
2019-03-22T03:58:11.867Z,108.87
2019-03-22T04:00:41.872Z,109.42
2019-03-22T04:03:12.092Z,114.22
2019-03-22T04:05:42.097Z,115.70
2019-03-22T04:08:12.060Z,111.85
2019-03-22T04:10:43.059Z,123.90
2019-03-22T04:13:13.161Z,108.20
2019-03-22T04:15:43.374Z,115.50
2019-03-22T04:18:13.377Z,120.10
2019-03-22T04:20:43.581Z,121.47
2019-03-22T04:23:13.645Z,120.20
2019-03-22T04:25:43.770Z,119.80
2019-03-22T04:28:14.081Z,123.28
2019-03-22T04:30:44.321Z,113.83
2019-03-22T04:33:14.419Z,119.20
2019-03-22T04:35:44.370Z,120.30
2019-03-22T04:38:14.440Z,119.97
2019-03-22T04:40:45.766Z,113.32
2019-03-22T04:43:15.830Z,118.30
2019-03-22T04:45:47.215Z,116.62
2019-03-22T04:48:20.455Z,113.35
2019-03-22T04:50:52.741Z,116.50
2019-03-22T04:53:25.477Z,113.10
2019-03-22T04:55:59.559Z,117.45
2019-03-22T04:58:31.363Z,117.45
2019-03-22T05:01:01.879Z,112.28
2019-03-22T05:03:33.855Z,108.27
2019-03-22T05:06:06.021Z,103.27
2019-03-22T05:08:38.880Z,102.82
2019-03-22T05:11:15.551Z,102.97
2019-03-22T05:13:48.041Z,103.95
2019-03-22T05:16:20.829Z,105.00
2019-03-22T05:18:52.633Z,100.35
2019-03-22T05:21:25.672Z,100.05
2019-03-22T05:23:58.852Z,107.22
2019-03-22T05:26:30.878Z,104.87
2019-03-22T05:29:13.188Z,107.40
2019-03-22T05:32:05.080Z,103.62
2019-03-22T05:34:35.254Z,88.03
2019-03-22T05:37:05.687Z,109.72
2019-03-22T05:39:35.839Z,98.62
2019-03-22T05:42:05.824Z,108.25
2019-03-22T05:44:35.999Z,106.37
2019-03-22T05:47:06.067Z,102.53
2019-03-22T05:49:36.178Z,101.62
2019-03-22T05:52:06.223Z,105.40
2019-03-22T05:54:36.265Z,102.05
2019-03-22T05:57:13.409Z,101.45
2019-03-22T05:59:42.840Z,105.92
2019-03-22T06:02:10.008Z,99.52
2019-03-22T06:04:40.479Z,103.15
2019-03-22T06:07:10.412Z,106.10
2019-03-22T06:09:40.783Z,102.45
2019-03-22T06:12:11.704Z,110.25
2019-03-22T06:14:41.737Z,108.85
2019-03-22T06:17:11.785Z,109.48
2019-03-22T06:19:41.976Z,107.37
2019-03-22T06:22:12.122Z,105.00
2019-03-22T06:24:42.351Z,118.40
2019-03-22T06:27:12.704Z,113.60
2019-03-22T06:29:53.378Z,108.78
2019-03-22T06:32:14.469Z,106.63
2019-03-22T06:34:44.412Z,106.97
2019-03-22T06:37:14.396Z,110.37
2019-03-22T06:39:44.390Z,105.12
2019-03-22T06:42:14.525Z,102.85
2019-03-22T06:44:44.624Z,112.83
2019-03-22T06:47:14.599Z,103.55
2019-03-22T06:50:05.838Z,97.05
2019-03-22T06:52:35.925Z,97.95
2019-03-22T06:55:06.852Z,95.42
2019-03-22T06:57:37.115Z,101.00
2019-03-22T07:00:09.219Z,96.22
2019-03-22T07:02:39.425Z,95.10
2019-03-22T07:05:09.462Z,90.03
2019-03-22T07:07:40.538Z,91.67
2019-03-22T07:10:10.863Z,92.50
2019-03-22T07:12:41.672Z,93.07
2019-03-22T07:15:11.771Z,98.90
2019-03-22T07:17:41.706Z,106.55
2019-03-22T07:20:12.137Z,97.10
2019-03-22T07:22:42.135Z,98.92
2019-03-22T07:25:12.386Z,101.33
2019-03-22T07:27:42.483Z,97.42
2019-03-22T07:30:18.810Z,102.22
2019-03-22T07:32:47.247Z,102.45
2019-03-22T07:35:17.263Z,107.40
2019-03-22T07:37:47.192Z,97.42
2019-03-22T07:40:17.504Z,99.60
2019-03-22T07:42:47.620Z,97.30
2019-03-22T07:45:17.631Z,112.30
2019-03-22T07:47:47.581Z,103.17
2019-03-22T07:50:17.743Z,106.15
2019-03-22T07:52:47.686Z,104.63
2019-03-22T07:55:17.710Z,105.32
2019-03-22T07:57:47.795Z,106.72
2019-03-22T08:00:29.874Z,105.40
2019-03-22T08:02:49.540Z,104.30
2019-03-22T08:05:19.505Z,100.78
2019-03-22T08:07:49.643Z,110.60
2019-03-22T08:10:19.700Z,103.22
2019-03-22T08:12:50.667Z,104.12
2019-03-22T08:15:29.214Z,96.95
2019-03-22T08:17:59.855Z,97.78
2019-03-22T08:20:30.540Z,99.87
2019-03-22T08:23:00.533Z,98.25
2019-03-22T08:25:32.417Z,94.77
2019-03-22T08:28:02.421Z,98.92
2019-03-22T08:30:42.586Z,95.70
2019-03-22T08:33:04.694Z,96.78
2019-03-22T08:35:34.749Z,96.85
2019-03-22T08:38:05.023Z,98.70
2019-03-22T08:40:35.122Z,94.90
2019-03-22T08:43:05.453Z,92.12
2019-03-22T08:45:35.486Z,95.50
2019-03-22T08:48:05.670Z,95.25
2019-03-22T08:50:35.724Z,103.75
2019-03-22T08:53:05.897Z,100.78
2019-03-22T08:55:35.938Z,92.92
2019-03-22T08:58:05.938Z,92.62
2019-03-22T09:00:39.469Z,97.55
2019-03-22T09:03:07.715Z,84.97
2019-03-22T09:05:37.725Z,90.30
2019-03-22T09:08:07.748Z,82.78
2019-03-22T09:10:37.956Z,81.05
2019-03-22T09:13:09.025Z,82.30
2019-03-22T09:15:42.219Z,80.95
2019-03-22T09:18:10.879Z,67.70
2019-03-22T09:20:41.129Z,71.17
2019-03-22T09:23:11.187Z,64.05
2019-03-22T09:25:41.217Z,63.17
2019-03-22T09:28:11.195Z,59.65
2019-03-22T09:30:41.286Z,54.08
2019-03-22T09:33:13.421Z,62.17
2019-03-22T09:35:43.096Z,67.92
2019-03-22T09:38:13.573Z,60.60
2019-03-22T09:40:43.754Z,67.82
2019-03-22T09:43:13.723Z,58.23
2019-03-22T09:45:46.513Z,53.87
2019-03-22T09:48:16.537Z,54.55
2019-03-22T09:50:46.724Z,50.48
2019-03-22T09:53:17.335Z,56.35
2019-03-22T09:55:47.388Z,55.55
2019-03-22T09:58:17.499Z,55.75
2019-03-22T10:00:48.749Z,61.28
2019-03-22T10:03:19.033Z,55.55
2019-03-22T10:05:49.248Z,57.60
2019-03-22T10:08:19.314Z,54.83
2019-03-22T10:10:49.680Z,61.80
2019-03-22T10:13:20.752Z,58.40
2019-03-22T10:15:50.739Z,49.08
2019-03-22T10:18:20.817Z,51.28
2019-03-22T10:20:50.813Z,52.25
2019-03-22T10:23:22.401Z,60.25
2019-03-22T10:25:52.730Z,61.33
2019-03-22T10:28:22.839Z,68.02
2019-03-22T10:30:53.062Z,57.67
2019-03-22T10:33:23.366Z,59.85
2019-03-22T10:35:53.575Z,58.63
2019-03-22T10:38:31.134Z,53.98
2019-03-22T10:40:55.535Z,59.13
2019-03-22T10:43:25.958Z,53.15
2019-03-22T10:45:56.090Z,50.58
2019-03-22T10:48:26.267Z,50.75
2019-03-22T10:50:56.620Z,51.42
2019-03-22T10:53:27.035Z,44.83
2019-03-22T10:55:57.061Z,49.33
2019-03-22T10:58:27.023Z,45.15
2019-03-22T11:00:56.980Z,46.95
2019-03-22T11:03:27.583Z,44.23
2019-03-22T11:05:57.619Z,45.95
2019-03-22T11:08:28.583Z,41.58
2019-03-22T11:10:58.549Z,47.10
2019-03-22T11:13:29.608Z,41.25
2019-03-22T11:15:59.735Z,40.50
2019-03-22T11:18:37.423Z,37.15
2019-03-22T11:21:05.554Z,38.85
2019-03-22T11:23:33.327Z,40.63
2019-03-22T11:26:04.458Z,44.45
2019-03-22T11:28:34.622Z,43.38
2019-03-22T11:31:05.004Z,41.35
2019-03-22T11:33:35.447Z,38.95
2019-03-22T11:36:05.392Z,40.03
2019-03-22T11:38:35.542Z,42.17
2019-03-22T11:41:05.522Z,42.23
2019-03-22T11:43:35.538Z,40.70
2019-03-22T11:46:05.488Z,43.17
2019-03-22T11:48:35.470Z,38.83
2019-03-22T11:51:05.804Z,39.53
2019-03-22T11:53:37.452Z,39.95
2019-03-22T11:56:09.390Z,41.63
2019-03-22T11:58:39.317Z,42.90
2019-03-22T12:01:19.131Z,46.73
2019-03-22T12:03:41.423Z,50.03
2019-03-22T12:06:11.466Z,53.25
2019-03-22T12:08:41.647Z,46.92
2019-03-22T12:11:11.725Z,59.88
2019-03-22T12:13:42.683Z,55.65
2019-03-22T12:16:12.632Z,59.83
2019-03-22T12:18:42.768Z,55.33
2019-03-22T12:21:12.906Z,57.65
2019-03-22T12:23:43.107Z,57.27
2019-03-22T12:26:13.119Z,54.13
2019-03-22T12:28:43.120Z,50.35
2019-03-22T12:31:13.127Z,54.50
2019-03-22T12:33:43.165Z,53.50
2019-03-22T12:36:13.209Z,49.85
2019-03-22T12:38:43.322Z,54.60
2019-03-22T12:41:13.401Z,62.98
2019-03-22T12:43:43.342Z,51.92
2019-03-22T12:46:13.312Z,57.33
2019-03-22T12:48:43.296Z,57.13
2019-03-22T12:51:13.321Z,62.80
2019-03-22T12:53:43.280Z,60.75
2019-03-22T12:56:13.209Z,55.12
2019-03-22T12:58:43.215Z,50.92
2019-03-22T13:01:13.257Z,48.42
2019-03-22T13:03:43.288Z,51.28
2019-03-22T13:06:13.221Z,53.23
2019-03-22T13:08:43.233Z,51.77
2019-03-22T13:11:13.175Z,56.15
2019-03-22T13:13:44.770Z,56.85
2019-03-22T13:16:14.750Z,60.85
2019-03-22T13:18:50.194Z,55.63
2019-03-22T13:21:16.574Z,59.90
2019-03-22T13:23:47.615Z,62.88
2019-03-22T13:26:17.567Z,47.67
2019-03-22T13:28:47.508Z,48.50
2019-03-22T13:31:17.562Z,49.42
2019-03-22T13:33:47.516Z,50.60
2019-03-22T13:36:17.452Z,50.35
2019-03-22T13:38:47.448Z,57.53
2019-03-22T13:41:17.684Z,58.20
2019-03-22T13:43:47.640Z,59.50
2019-03-22T13:46:17.746Z,57.03
2019-03-22T13:48:47.710Z,59.98
2019-03-22T13:51:17.785Z,57.45
2019-03-22T13:53:48.115Z,59.23
2019-03-22T13:56:18.032Z,57.78
2019-03-22T13:58:47.971Z,59.75
2019-03-22T14:01:17.980Z,63.92
2019-03-22T14:03:48.003Z,60.58
2019-03-22T14:06:18.210Z,69.90
2019-03-22T14:08:48.189Z,69.35
2019-03-22T14:11:18.195Z,73.22
2019-03-22T14:13:48.949Z,73.37
2019-03-22T14:16:18.903Z,71.67
2019-03-22T14:18:51.929Z,73.55
2019-03-22T14:21:21.915Z,74.12
2019-03-22T14:23:52.038Z,67.82
2019-03-22T14:26:21.969Z,74.85
2019-03-22T14:28:51.908Z,71.87
2019-03-22T14:31:23.527Z,70.00
2019-03-22T14:33:53.457Z,70.52
2019-03-22T14:36:23.384Z,72.82
2019-03-22T14:38:53.351Z,71.60
2019-03-22T14:41:23.372Z,68.85
2019-03-22T14:43:53.365Z,63.55
2019-03-22T14:46:23.539Z,57.60
2019-03-22T14:48:53.700Z,52.17
2019-03-22T14:51:23.615Z,52.05
2019-03-22T14:53:53.572Z,51.80
2019-03-22T14:56:23.505Z,51.48
2019-03-22T14:58:53.455Z,48.10
2019-03-22T15:01:23.420Z,50.48
2019-03-22T15:03:53.559Z,50.58
2019-03-22T15:06:23.578Z,48.35
2019-03-22T15:08:53.520Z,48.20
2019-03-22T15:11:23.574Z,47.03
2019-03-22T15:13:55.285Z,42.73
2019-03-22T15:16:28.323Z,43.65
2019-03-22T15:19:05.650Z,42.08
2019-03-22T15:21:46.459Z,43.45
2019-03-22T15:24:36.332Z,38.95
2019-03-22T15:27:10.594Z,45.03
2019-03-22T15:29:50.228Z,51.08
2019-03-22T15:32:35.486Z,46.35
2019-03-22T15:38:14.451Z,45.48
2019-03-22T15:40:44.453Z,46.05
2019-03-22T15:43:14.486Z,45.73
2019-03-22T15:45:44.516Z,49.20
2019-03-22T15:48:14.548Z,47.43
2019-03-22T15:50:44.555Z,45.95
2019-03-22T15:53:14.821Z,45.40
2019-03-22T15:55:44.791Z,42.23
2019-03-22T15:58:14.752Z,44.18
2019-03-22T16:00:44.760Z,47.80
2019-03-22T16:03:14.718Z,44.05
2019-03-22T16:05:44.811Z,50.00
2019-03-22T16:08:14.768Z,53.08
2019-03-22T16:10:44.772Z,53.58
2019-03-22T16:13:14.835Z,46.75
2019-03-22T16:15:45.465Z,39.88
2019-03-22T16:18:15.408Z,47.33
2019-03-22T16:20:45.390Z,43.20
2019-03-22T16:23:15.339Z,40.50
2019-03-22T16:25:45.314Z,42.43
2019-03-22T16:28:15.640Z,39.08
2019-03-22T16:30:45.605Z,52.67
2019-03-22T16:33:15.857Z,68.30
2019-03-22T16:35:45.855Z,63.17
2019-03-22T16:38:15.991Z,48.65
2019-03-22T16:40:46.102Z,45.30
2019-03-22T16:43:16.057Z,44.45
2019-03-22T16:45:46.235Z,53.78
2019-03-22T16:48:16.208Z,52.03
2019-03-22T16:50:46.148Z,78.17
2019-03-22T16:53:16.099Z,87.42
2019-03-22T16:55:46.070Z,50.08
2019-03-22T16:58:15.762Z,39.95
2019-03-22T17:00:45.619Z,39.23
2019-03-22T17:03:15.662Z,45.03
2019-03-22T17:05:45.657Z,45.63
2019-03-22T17:08:15.648Z,43.85
2019-03-22T17:10:45.250Z,46.08
2019-03-22T17:13:15.089Z,49.15
2019-03-22T17:15:46.196Z,49.35
2019-03-22T17:18:17.298Z,50.50
2019-03-22T17:20:47.273Z,60.60
2019-03-22T17:23:17.292Z,60.83
2019-03-22T17:25:47.326Z,62.13
2019-03-22T17:28:17.275Z,67.90
2019-03-22T17:30:47.238Z,63.68
2019-03-22T17:33:17.283Z,66.35
2019-03-22T17:35:47.514Z,62.33
2019-03-22T17:38:17.536Z,69.42
2019-03-22T17:40:47.834Z,64.75
2019-03-22T17:43:17.987Z,71.17
2019-03-22T17:45:47.995Z,71.42
2019-03-22T17:48:18.522Z,75.80
2019-03-22T17:50:48.735Z,80.07
2019-03-22T17:53:18.834Z,81.30
2019-03-22T17:55:49.404Z,87.55
2019-03-22T17:58:19.462Z,94.10
2019-03-22T18:00:49.642Z,94.03
2019-03-22T18:03:19.726Z,96.75
2019-03-22T18:05:49.671Z,97.12
2019-03-22T18:08:19.628Z,98.15
2019-03-22T18:10:49.611Z,96.90
2019-03-22T18:13:19.645Z,98.70
2019-03-22T18:15:49.644Z,95.30
2019-03-22T18:18:21.807Z,99.70
2019-03-22T18:20:51.824Z,101.80
2019-03-22T18:23:22.738Z,95.03
2019-03-22T18:25:52.840Z,96.10
2019-03-22T18:28:23.017Z,91.08
2019-03-22T18:30:53.013Z,95.32
2019-03-22T18:33:23.036Z,96.15
2019-03-22T18:35:53.155Z,97.45
2019-03-22T18:38:23.194Z,98.25
2019-03-22T18:40:53.202Z,89.28
2019-03-22T18:43:23.212Z,95.28
2019-03-22T18:45:53.229Z,86.20
2019-03-22T18:48:23.320Z,88.90
2019-03-22T18:50:56.891Z,91.50
2019-03-22T18:53:24.956Z,82.57
2019-03-22T18:55:54.916Z,86.22
2019-03-22T18:58:24.864Z,86.67
2019-03-22T19:00:54.879Z,84.40
2019-03-22T19:03:24.823Z,84.90
2019-03-22T19:05:54.849Z,83.12
2019-03-22T19:08:25.380Z,92.37
2019-03-22T19:10:55.488Z,82.53
2019-03-22T19:13:30.617Z,85.55
2019-03-22T19:15:57.582Z,88.62
2019-03-22T19:18:28.678Z,88.07
2019-03-22T19:20:58.775Z,90.87
2019-03-22T19:23:28.823Z,93.12
2019-03-22T19:25:58.904Z,91.42
2019-03-22T19:28:30.180Z,90.80
2019-03-22T19:31:00.165Z,93.10
2019-03-22T19:33:30.145Z,102.07
2019-03-22T19:36:00.086Z,93.10
2019-03-22T19:38:30.218Z,96.00
2019-03-22T19:41:00.256Z,92.70
2019-03-22T19:43:31.195Z,91.25
2019-03-22T19:46:01.204Z,97.95
2019-03-22T19:48:31.303Z,95.12
2019-03-22T19:51:01.304Z,102.58
2019-03-22T19:53:31.292Z,109.92
2019-03-22T19:56:01.590Z,125.97
2019-03-22T19:58:31.616Z,113.45
2019-03-22T20:01:01.729Z,108.12
2019-03-22T20:03:35.774Z,113.45
2019-03-22T20:06:05.770Z,111.25
2019-03-22T20:08:36.010Z,112.60
2019-03-22T20:11:06.115Z,120.95
2019-03-22T20:13:36.098Z,125.70
2019-03-22T20:16:06.231Z,135.28
2019-03-22T20:18:37.231Z,146.05
2019-03-22T20:21:07.233Z,160.57
2019-03-22T20:23:37.181Z,172.87
2019-03-22T20:26:07.462Z,170.10
2019-03-22T20:28:39.602Z,164.62
2019-03-22T20:31:09.962Z,169.20
2019-03-22T20:33:39.990Z,155.87
2019-03-22T20:36:10.004Z,155.80
2019-03-22T20:38:39.991Z,155.10
2019-03-22T20:41:10.009Z,154.27
2019-03-22T20:43:39.975Z,155.30
2019-03-22T20:46:10.043Z,160.22
2019-03-22T20:48:40.042Z,149.23
2019-03-22T20:51:10.062Z,151.32
2019-03-22T20:53:40.110Z,156.67
2019-03-22T20:56:11.419Z,163.60
2019-03-22T20:58:41.388Z,160.25
2019-03-22T21:01:11.439Z,169.62
2019-03-22T21:03:41.927Z,171.28
2019-03-22T21:06:12.174Z,176.97
2019-03-22T21:08:42.381Z,176.75
2019-03-22T21:11:12.537Z,185.22
2019-03-22T21:13:45.540Z,183.25
2019-03-22T21:16:16.317Z,179.27
2019-03-22T21:18:46.320Z,186.62
2019-03-22T21:21:16.517Z,180.00
2019-03-22T21:23:46.566Z,179.50
2019-03-22T21:26:18.758Z,177.68
2019-03-22T21:28:48.755Z,176.07
2019-03-22T21:31:19.038Z,177.55
2019-03-22T21:33:49.120Z,174.10
2019-03-22T21:36:20.489Z,177.45
2019-03-22T21:38:52.170Z,178.00
2019-03-22T21:41:22.400Z,181.22
2019-03-22T21:43:52.477Z,188.47
2019-03-22T21:46:22.470Z,189.55
2019-03-22T21:48:52.675Z,194.60
2019-03-22T21:51:23.004Z,181.10
2019-03-22T21:53:53.141Z,183.78
2019-03-22T21:56:23.155Z,181.85
2019-03-22T21:58:53.168Z,182.02
2019-03-22T22:01:23.418Z,185.25
2019-03-22T22:03:54.206Z,218.73
2019-03-22T22:06:24.271Z,186.60
2019-03-22T22:08:57.179Z,197.05
2019-03-22T22:11:27.235Z,203.18
2019-03-22T22:13:57.256Z,201.95
2019-03-22T22:16:27.276Z,204.28
2019-03-22T22:18:57.796Z,199.82
2019-03-22T22:21:27.837Z,208.35
2019-03-22T22:23:57.837Z,200.87
2019-03-22T22:26:27.818Z,200.82
2019-03-22T22:28:57.899Z,186.43
2019-03-22T22:31:29.247Z,192.28
2019-03-22T22:33:59.304Z,202.18
2019-03-22T22:36:30.468Z,198.72
2019-03-22T22:39:00.505Z,182.45
2019-03-22T22:41:32.370Z,178.40
2019-03-22T22:44:02.411Z,181.45
2019-03-22T22:46:32.447Z,183.72
2019-03-22T22:49:02.421Z,180.65
2019-03-22T22:51:32.361Z,186.67
2019-03-22T22:54:02.496Z,183.03
2019-03-22T22:56:32.507Z,187.27
2019-03-22T22:59:02.457Z,190.65
2019-03-22T23:01:33.463Z,272.82
2019-03-22T23:04:03.663Z,219.90
2019-03-22T23:06:33.803Z,187.00
2019-03-22T23:09:06.315Z,209.35
2019-03-22T23:11:37.960Z,186.70
2019-03-22T23:14:07.903Z,193.43
2019-03-22T23:16:37.910Z,230.05
2019-03-22T23:19:07.951Z,165.70
2019-03-22T23:21:38.186Z,166.12
2019-03-22T23:24:08.162Z,162.82
2019-03-22T23:26:38.178Z,173.62
2019-03-22T23:29:09.357Z,206.78
2019-03-22T23:31:39.453Z,186.20
2019-03-22T23:34:09.469Z,224.80
2019-03-22T23:36:40.384Z,174.47
2019-03-22T23:39:10.586Z,216.73
2019-03-22T23:41:40.651Z,195.97
2019-03-22T23:44:10.652Z,184.75
2019-03-22T23:46:40.637Z,195.80
2019-03-22T23:49:10.605Z,219.47
2019-03-22T23:51:41.384Z,186.05
2019-03-22T23:54:12.020Z,150.53
2019-03-22T23:56:42.057Z,168.55
2019-03-22T23:59:12.045Z,177.15
